Flight Track Log - Related Links

Times and Time Zones

All times are in EDT time to prevent confusion due to time zone crossing. See the AWE612 flight status page for this flight to view local times or setup timezone preferences in your user account.

Time Position Orientation Groundspeed Altitude Reporting Facility
EDT Latitude Longitude Course Direction KTS MPH feet Rate Location/Type
03:31PM 33.4333 -112.0333 82° East 174 200 1,800  Level Phoenix TRACON
03:32PM 33.4167 -112.0833 248° West 195 224 3,400 2,150 Climbing Phoenix TRACON
03:33PM 33.4000 -112.1667 257° West 243 280 6,100 2,662 Climbing Phoenix TRACON
03:34PM 33.4925 -111.4155 79° East  Level FlightAware Approximate
03:34PM 33.3200 -112.1581 175° South 272 313 9,300  Level Albuquerque Center
03:35PM 33.5111 -111.2670 82° East  Level FlightAware Approximate
03:35PM 33.2861 -112.0750 116° Southeast 328 377 11,100  Level Albuquerque Center
03:36PM 33.5225 -111.1176 82° East  Level FlightAware Approximate
03:36PM 33.3231 -111.9603 69° East 372 428 13,600  Level Albuquerque Center
03:37PM 33.3611 -111.8364 70° East 374 430 16,200 2,160 Climbing Albuquerque Center
03:38PM 33.3967 -111.7219 70° East 389 448 18,100 1,776 Climbing Albuquerque Center
03:39PM 33.4456 -111.5642 70° East 424 488 19,900 1,548 Climbing Albuquerque Center
03:40PM 33.4889 -111.4250 69° East 446 513 21,300 1,306 Climbing Albuquerque Center
03:41PM 33.5136 -111.2706 79° East 476 548 22,600 1,306 Climbing Albuquerque Center
03:42PM 33.5322 -111.1089 82° East 489 563 24,000 1,548 Climbing Albuquerque Center
03:43PM 33.5497 -110.9453 83° East 495 570 25,800 1,645 Climbing Albuquerque Center
03:44PM 33.6000 -110.7556 72° East 496 571 27,400 1,355 Climbing Albuquerque Center
03:45PM 33.6508 -110.5975 69° East 504 580 28,600 1,210 Climbing Albuquerque Center
03:46PM 33.6847 -110.4306 76° East 517 595 29,900 1,210 Climbing Albuquerque Center
03:47PM 33.7219 -110.2458 76° East 518 596 31,100 1,161 Climbing Albuquerque Center
03:48PM 33.7569 -110.0758 76° East 520 598 32,300 1,200 Climbing Albuquerque Center
03:49PM 33.7928 -109.9042 76° East 524 603 33,600 1,056 Climbing Albuquerque Center
03:50PM 33.8275 -109.7319 76° East 525 604 34,500 677 Climbing Albuquerque Center
03:51PM 33.8614 -109.5589 77° East 528 608 35,000 242 Climbing Albuquerque Center
03:52PM 33.9022 -109.3544 76° East 529 609 35,000  Level Albuquerque Center
03:54PM 33.9364 -109.1819 77° East 528 608 35,000  Level Albuquerque Center
03:55PM 33.9697 -109.0106 77° East 528 608 35,000  Level Albuquerque Center
03:56PM 34.0031 -108.8361 77° East 528 608 35,000  Level Albuquerque Center
03:57PM 34.0372 -108.6622 77° East 529 609 35,000  Level Albuquerque Center
03:58PM 34.0700 -108.4900 77° East 529 609 35,000  Level Albuquerque Center
03:59PM 34.1083 -108.2842 77° East 529 609 35,000  Level Albuquerque Center
04:00PM 34.1392 -108.1100 78° East 529 609 35,000  Level Albuquerque Center
04:01PM 34.1711 -107.9383 77° East 529 609 35,000  Level Albuquerque Center
04:02PM 34.2028 -107.7664 77° East 529 609 35,000  Level Albuquerque Center
04:03PM 34.2336 -107.5956 78° East 528 608 35,000  Level Albuquerque Center
04:04PM 34.2639 -107.4239 78° East 527 606 35,000 -48 Level Albuquerque Center
04:05PM 34.3011 -107.2244 77° East 516 594 34,900  Descending Albuquerque Center
04:06PM 34.3342 -107.0456 77° East 515 593 35,000 48 Climbing Albuquerque Center
04:07PM 34.3644 -106.8781 78° East 514 592 35,000  Level Albuquerque Center
04:08PM 34.3908 -106.6942 80° East 514 592 35,000  Level Albuquerque Center
04:09PM 34.3892 -106.5144 91° East 515 593 35,000  Level Albuquerque Center
04:10PM 34.3856 -106.3392 91° East 518 596 35,000  Level Albuquerque Center
04:11PM 34.3811 -106.1547 92° East 519 597 35,000  Level Albuquerque Center
04:12PM 34.3756 -105.9778 92° East 519 597 35,000  Level Albuquerque Center
04:13PM 34.3703 -105.7981 92° East 523 602 35,000  Level Albuquerque Center
04:14PM 34.3681 -105.6172 91° East 528 608 35,000  Level Albuquerque Center
04:15PM 34.3792 -105.4347 86° East 538 619 35,000  Level Albuquerque Center
04:16PM 34.3906 -105.2208 86° East 540 621 35,000  Level Albuquerque Center
04:17PM 34.4011 -105.0389 86° East 540 621 35,000  Level Albuquerque Center
04:18PM 34.4103 -104.8561 86° East 540 621 35,000  Level Albuquerque Center
04:19PM 34.4186 -104.6725 87° East 540 621 35,000  Level Albuquerque Center
04:20PM 34.4278 -104.4886 86° East 541 623 35,000  Level Albuquerque Center
04:21PM 34.4369 -104.3067 86° East 541 623 35,000  Level Albuquerque Center
04:22PM 34.4467 -104.0925 87° East 541 623 35,000  Level Albuquerque Center
04:24PM 34.4536 -103.9133 87° East 538 619 35,000  Level Albuquerque Center
04:25PM 34.4622 -103.7308 87° East 536 617 35,000  Level Albuquerque Center
04:26PM 34.4697 -103.5481 87° East 538 619 35,000  Level Albuquerque Center
04:27PM 34.4758 -103.3647 88° East 539 620 35,000  Level Albuquerque Center
04:28PM 34.4833 -103.1786 87° East 545 627 35,000 480 Level Albuquerque Center
04:29PM 34.4906 -102.9794 87° East 547 629 36,000 919 Climbing Albuquerque Center
04:30PM 34.5039 -102.7797 85° East 546 628 36,900 488 Climbing Albuquerque Center
04:31PM 34.5350 -102.6206 77° East 545 627 37,000 48 Climbing Albuquerque Center
04:32PM 34.5756 -102.4089 77° East 539 620 37,000  Level Albuquerque Center
04:33PM 34.6081 -102.2308 77° East 540 621 37,000  Level Albuquerque Center
04:34PM 34.6400 -102.0508 78° East 542 624 37,000  Level Albuquerque Center
04:35PM 34.6728 -101.8733 77° East 543 625 37,000  Level Albuquerque Center
04:36PM 34.7053 -101.6944 77° East 544 626 37,000  Level Albuquerque Center
04:37PM 34.7431 -101.4792 78° East 545 627 37,000  Level Albuquerque Center
04:38PM 34.7739 -101.3003 78° East 545 627 37,000  Level Albuquerque Center
04:39PM 34.8061 -101.1211 78° East 545 627 37,000  Level Albuquerque Center
04:40PM 34.8375 -100.9414 78° East 546 628 37,000  Level Albuquerque Center
04:41PM 34.8683 -100.7614 78° East 547 629 37,000  Level Albuquerque Center
04:42PM 34.9033 -100.5447 79° East 547 629 37,000  Level Albuquerque Center
04:43PM 34.9356 -100.3597 78° East 547 629 37,000  Level Albuquerque Center
04:44PM 34.9661 -100.1786 78° East 546 628 37,000  Level Albuquerque Center
04:45PM 34.9956 -99.9967 79° East 546 628 37,000  Level Albuquerque Center
04:46PM 35.0242 -99.8156 79° East 547 629 37,000  Level Albuquerque Center
04:47PM 35.0531 -99.6353 79° East 546 628 37,000  Level Albuquerque Center
04:48PM 35.0703 -99.5269 79° East 544 626 37,000  Level Fort Worth Center
04:49PM 35.1003 -99.3456 79° East 546 628 37,000  Level Fort Worth Center
04:50PM 35.1269 -99.1639 80° East 547 629 37,000  Level Fort Worth Center
04:51PM 35.1561 -98.9819 79° East 547 629 37,000  Level Fort Worth Center
04:52PM 35.1911 -98.7594 79° East 561 646 37,000  Level Fort Worth Center
04:53PM 35.2172 -98.5781 80° East 549 632 37,000  Level Fort Worth Center
04:54PM 35.2444 -98.4072 79° East 549 632 37,000  Level Fort Worth Center
04:55PM 35.2711 -98.2236 80° East 546 628 37,000  Level Fort Worth Center
04:56PM 35.3028 -98.0031 80° East 548 631 37,000  Level Fort Worth Center
04:57PM 35.3294 -97.8172 80° East 550 633 37,000  Level Fort Worth Center
04:58PM 35.3547 -97.6339 80° East 548 631 37,000  Level Fort Worth Center
04:59PM 35.3672 -97.4336 86° East 552 635 37,000  Level Fort Worth Center
05:00PM 35.3681 -97.2464 90° East 553 636 37,000  Level Fort Worth Center
05:01PM 35.3694 -97.0506 89° East 554 638 37,000  Level Fort Worth Center
05:02PM 35.3739 -96.8636 88° East 552 635 37,000  Level Fort Worth Center
05:03PM 35.3772 -96.6761 89° East 551 634 37,000  Level Fort Worth Center
05:04PM 35.3800 -96.4906 89° East 550 633 37,000  Level Fort Worth Center
05:05PM 35.3833 -96.2669 89° East 549 632 37,000  Level Fort Worth Center
05:06PM 35.3839 -96.0800 90° East 549 632 37,000  Level Fort Worth Center
05:08PM 35.3875 -95.8944 89° East 548 631 37,000  Level Fort Worth Center
05:09PM 35.3872 -95.7183 90° East 550 633 37,000 -48 Level Fort Worth Center
05:10PM 35.3886 -95.4953 89° East 550 633 36,900  Descending Fort Worth Center
05:11PM 35.3886 -95.3092 90° East 550 633 37,000 56 Climbing Fort Worth Center
05:11PM 35.3892 -95.1594 90° East 551 634 37,000  Level Memphis Center
05:12PM 35.3894 -94.9739 90° East 551 634 37,000  Level Memphis Center
05:13PM 35.3894 -94.7869 90° East 551 634 37,000  Level Memphis Center
05:14PM 35.3897 -94.6008 90° East 551 634 37,000  Level Memphis Center
05:16PM 35.3897 -94.4150 90° East 550 633 37,000  Level Memphis Center
05:17PM 35.3878 -94.2283 91° East 550 633 37,000  Level Memphis Center
05:18PM 35.3714 -94.0061 95° East 550 633 37,000  Level Memphis Center
05:19PM 35.3564 -93.8189 96° East 550 633 37,000  Level Memphis Center
05:20PM 35.3428 -93.6367 95° East 550 633 37,000  Level Memphis Center
05:21PM 35.3289 -93.4525 95° East 549 632 37,000  Level Memphis Center
05:22PM 35.3142 -93.2619 95° East 549 632 37,000  Level Memphis Center
05:23PM 35.2989 -93.0744 96° East 550 633 37,000  Level Memphis Center
05:24PM 35.2808 -92.8475 96° East 559 643 37,000  Level Memphis Center
05:25PM 35.2672 -92.6800 96° East 559 643 37,000  Level Memphis Center
05:26PM 35.2519 -92.4928 96° East 559 643 37,000  Level Memphis Center
05:27PM 35.2331 -92.2706 96° East 553 636 37,000  Level Memphis Center
05:28PM 35.2164 -92.0828 96° East 553 636 37,000  Level Memphis Center
05:29PM 35.2003 -91.8964 96° East 554 638 37,000  Level Memphis Center
05:30PM 35.1842 -91.7089 96° East 554 638 37,000  Level Memphis Center
05:31PM 35.1672 -91.5214 96° East 554 638 37,000  Level Memphis Center
05:32PM 35.1489 -91.3236 96° East 554 638 37,000  Level Memphis Center
05:33PM 35.1314 -91.1369 96° East 555 639 37,000  Level Memphis Center
05:34PM 35.1092 -90.9117 97° East 555 639 37,000  Level Memphis Center
05:35PM 35.0911 -90.7239 97° East 555 639 37,000  Level Memphis Center
05:36PM 35.0719 -90.5356 97° East 557 641 37,000  Level Memphis Center
05:37PM 35.0531 -90.3478 97° East 557 641 37,000  Level Memphis Center
05:38PM 35.0339 -90.1606 97° East 557 641 37,000  Level Memphis Center
05:39PM 35.0144 -89.9731 97° East 557 641 37,000  Level Memphis Center
05:40PM 34.9872 -89.7831 100° East 557 641 37,000  Level Memphis Center
05:41PM 34.9581 -89.5908 100° East 557 641 37,000  Level Memphis Center
05:42PM 34.9239 -89.3672 100° East 557 641 37,000  Level Memphis Center
05:43PM 34.8964 -89.1833 100° East 554 638 37,000  Level Memphis Center
05:44PM 34.8681 -89.0006 101° East 554 638 37,000  Level Memphis Center
05:46PM 34.8408 -88.8172 100° East 553 636 37,000  Level Memphis Center
05:47PM 34.8122 -88.6344 101° East 553 636 37,000  Level Memphis Center
05:48PM 34.7808 -88.4314 101° East 552 635 37,000 -194 Level Memphis Center
05:49PM 34.7517 -88.2497 101° East 552 635 36,600 -629 Descending Memphis Center
05:50PM 34.7219 -88.0669 101° East 551 634 35,700 -774 Descending Memphis Center
05:51PM 34.6936 -87.8886 101° East 543 625 35,000 -581 Descending Memphis Center
05:52PM 34.6647 -87.7147 101° East 528 608 34,500 -774 Descending Memphis Center
05:53PM 34.6306 -87.5031 101° East 528 608 33,400 -726 Descending Memphis Center
05:54PM 34.5989 -87.3292 102° East 522 601 33,000 -233 Descending Memphis Center
05:54PM 34.5778 -87.2150 103° East 539 620 33,000  Level Atlanta Center
05:55PM 34.5464 -87.0450 103° East 469 540 33,000  Level Atlanta Center
05:56PM 34.5128 -86.8772 104° East 484 557 33,000  Level Atlanta Center
05:57PM 34.4811 -86.7075 103° East 504 580 33,000  Level Atlanta Center
05:58PM 34.4494 -86.5375 103° East 509 586 33,000 -700 Level Atlanta Center
05:59PM 34.4150 -86.3706 104° East 509 586 31,600 -1,950 Descending Atlanta Center
06:00PM 34.3828 -86.2008 103° East 509 586 29,100 -2,300 Descending Atlanta Center
06:01PM 34.3478 -86.0364 104° East 509 586 27,000 -2,600 Descending Atlanta Center
06:02PM 34.3169 -85.8722 103° East 509 586 23,900 -2,750 Descending Atlanta Center
06:03PM 34.2858 -85.7131 103° East 493 567 21,500 -1,900 Descending Atlanta Center
06:04PM 34.2564 -85.5719 104° East 459 528 20,100 -1,900 Descending Atlanta Center
06:05PM 34.2289 -85.4333 103° East 432 497 17,700 -2,550 Descending Atlanta Center
06:06PM 34.1992 -85.2947 104° East 420 483 15,000 -2,150 Descending Atlanta Center
06:07PM 34.1731 -85.1611 103° East 415 478 13,400 -1,000 Descending Atlanta Center
06:08PM 34.1197 -85.0675 125° Southeast 358 412 13,000 -250 Descending Atlanta Center
06:09PM 34.0556 -84.9917 136° Southeast 338 389 12,900 -750 Descending Atlanta Center
06:10PM 33.9744 -84.9656 165° South 300 345 11,500 -1,550 Descending Atlanta Center
06:11PM 33.9017 -84.9447 167° South 300 345 9,800 -1,250 Descending Atlanta Center
06:12PM 33.8244 -84.9239 167° South 293 337 9,000 -800 Descending Atlanta Center
06:13PM 33.7475 -84.9033 167° South 293 337 8,200 -950 Descending Atlanta Center
06:14PM 33.6744 -84.8800 165° South 281 323 7,100 -778 Descending Atlanta Center
06:15PM 33.6333 -84.8333 137° Southeast 252 290 6,800 -611 Descending Atlanta TRACON
06:16PM 33.6333 -84.7500 90° East 233 268 6,000 -893 Descending Atlanta TRACON
06:17PM 33.6333 -84.6833 90° East 215 247 5,000 -994 Descending Atlanta TRACON
06:19PM 33.6333 -84.5500 90° East 185 213 3,000 -1,034 Descending Atlanta TRACON
06:20PM 33.6333 -84.5167 90° East 146 168 2,000 -900 Descending Atlanta TRACON
06:21PM 33.6333 -84.4500 90° East 131 151 1,200 -727 Descending Atlanta TRACON

Login

Don't have an account? Register now (free) for customized features, flight alerts, and more!